Time;durP1;ratioP1;P1;durP2;ratioP2;P2;SDS_P1;SDS_P2;PMS_P1;PMS_P2;Temp;Humidity;BMP_temperature;BMP_pressure;BME280_temperature;BME280_humidity;BME280_pressure;Samples;Min_cycle;Max_cycle;Signal;HPM_P1;HPM_P2
2022/08/13 00:01:27;;;;;;;4.53;1.10;;;;;;;25.32;47.66;101158.84;7381529;19;20356;-65
2022/08/13 00:04:06;;;;;;;3.63;1.15;;;;;;;25.28;47.62;101157.72;7378628;19;20022;-65
2022/08/13 00:09:22;;;;;;;4.72;1.08;;;;;;;25.20;48.13;101155.41;7380355;19;20178;-64
2022/08/13 00:14:47;;;;;;;3.92;1.20;;;;;;;25.08;48.33;101150.91;7382736;19;20006;-65
2022/08/13 00:17:18;;;;;;;3.17;0.90;;;;;;;25.02;48.57;101146.47;7379271;19;20487;-66
2022/08/13 00:19:53;;;;;;;3.58;1.75;;;;;;;24.98;49.00;101145.31;7376725;19;20475;-67
2022/08/13 00:22:25;;;;;;;6.03;1.13;;;;;;;24.97;48.91;101153.63;7382156;19;20074;-66
2022/08/13 00:24:59;;;;;;;4.80;1.20;;;;;;;24.95;48.92;101148.47;7382203;19;20022;-66
2022/08/13 00:27:28;;;;;;;3.53;1.10;;;;;;;24.92;49.46;101146.25;7382949;19;20014;-68
2022/08/13 00:30:17;;;;;;;2.70;0.90;;;;;;;24.91;50.09;101141.13;7383635;19;20006;-67
2022/08/13 00:33:00;;;;;;;3.92;0.88;;;;;;;24.87;50.02;101139.94;7382353;19;20043;-67
2022/08/13 00:35:28;;;;;;;4.22;1.40;;;;;;;24.82;50.65;101140.66;7375475;19;20021;-64
2022/08/13 00:38:18;;;;;;;3.42;1.20;;;;;;;24.78;50.57;101135.97;7381328;19;20571;-65
2022/08/13 00:40:48;;;;;;;5.32;1.20;;;;;;;24.75;50.89;101141.81;7379034;19;20010;-65
2022/08/13 00:43:24;;;;;;;4.53;1.13;;;;;;;24.69;51.34;101138.22;7382609;19;20024;-65
2022/08/13 00:45:54;;;;;;;6.80;0.95;;;;;;;24.64;51.25;101127.34;7381766;19;20068;-63
2022/08/13 00:51:24;;;;;;;4.05;1.10;;;;;;;24.59;51.86;101122.66;7381026;19;20191;-65
2022/08/13 00:54:18;;;;;;;6.10;1.05;;;;;;;24.58;52.33;101123.72;7379926;19;20049;-64
2022/08/13 00:56:46;;;;;;;4.38;1.23;;;;;;;24.55;52.34;101110.75;7378686;19;20386;-64
2022/08/13 00:59:14;;;;;;;4.32;1.08;;;;;;;24.54;52.09;101119.88;7375536;19;20032;-64
2022/08/13 01:01:46;;;;;;;1.90;0.90;;;;;;;24.52;52.67;101118.50;7380697;19;20081;-63
2022/08/13 01:04:20;;;;;;;5.07;1.20;;;;;;;24.49;52.55;101116.25;7374879;19;20010;-63
2022/08/13 01:06:56;;;;;;;7.57;1.40;;;;;;;24.47;53.17;101115.69;7384174;19;20017;-64
2022/08/13 01:09:29;;;;;;;5.50;0.90;;;;;;;24.46;53.62;101111.38;7379666;19;20014;-63
2022/08/13 01:12:20;;;;;;;2.17;0.90;;;;;;;24.45;53.44;101110.53;7379270;19;20362;-63
2022/08/13 01:14:56;;;;;;;4.60;1.13;;;;;;;24.44;53.15;101108.91;7379844;19;20015;-63
2022/08/13 01:17:28;;;;;;;2.95;1.10;;;;;;;24.41;53.23;101108.56;7378446;19;20021;-63
2022/08/13 01:20:21;;;;;;;7.35;1.20;;;;;;;24.41;53.72;101103.19;7351174;19;20367;-62
2022/08/13 01:23:03;;;;;;;7.57;1.10;;;;;;;24.35;53.88;101104.94;7374555;19;20074;-65
2022/08/13 01:25:32;;;;;;;4.00;1.50;;;;;;;24.29;53.69;101101.31;7379075;19;20019;-62
2022/08/13 01:28:22;;;;;;;3.58;1.35;;;;;;;24.27;53.91;101098.06;7379894;19;20010;-64
2022/08/13 01:30:51;;;;;;;3.72;1.10;;;;;;;24.27;54.12;101095.38;7380344;19;20018;-66
2022/08/13 01:33:20;;;;;;;4.50;1.25;;;;;;;24.23;54.77;101094.19;7377770;19;20025;-68
2022/08/13 01:35:49;;;;;;;5.47;1.15;;;;;;;24.20;54.63;101091.16;7376117;19;20039;-67
2022/08/13 01:38:22;;;;;;;6.82;1.20;;;;;;;24.16;55.05;101085.41;7374762;19;20015;-67
2022/08/13 01:40:53;;;;;;;5.18;1.88;;;;;;;24.15;55.31;101082.94;7380425;19;20594;-67
2022/08/13 01:43:22;;;;;;;5.32;1.17;;;;;;;24.11;55.64;101079.94;7383244;19;20017;-67
2022/08/13 01:45:51;;;;;;;3.63;1.50;;;;;;;24.10;55.66;101074.78;7382366;19;20424;-67
2022/08/13 01:51:28;;;;;;;5.97;1.10;;;;;;;24.04;56.57;101062.25;7382937;19;20015;-67
2022/08/13 01:54:00;;;;;;;4.97;1.58;;;;;;;24.03;56.67;101079.44;7382991;19;20348;-68
2022/08/13 01:56:36;;;;;;;4.78;1.33;;;;;;;24.02;57.15;101070.59;7384211;19;20078;-67
2022/08/13 01:59:07;;;;;;;5.15;1.98;;;;;;;24.03;57.44;101071.38;7381499;19;20018;-67
2022/08/13 02:01:40;;;;;;;4.97;1.85;;;;;;;24.01;57.77;101068.94;7384276;19;20018;-68
2022/08/13 02:04:13;;;;;;;7.30;1.40;;;;;;;23.98;57.47;101064.03;7378114;19;20019;-66
2022/08/13 02:06:51;;;;;;;4.07;1.30;;;;;;;23.97;57.67;101070.47;7383574;19;20018;-65
2022/08/13 02:09:23;;;;;;;5.90;1.30;;;;;;;23.99;57.25;101070.22;7382682;19;20002;-65
2022/08/13 02:12:13;;;;;;;7.63;2.45;;;;;;;23.98;57.50;101068.56;7382713;19;20054;-66
2022/08/13 02:15:05;;;;;;;5.22;1.30;;;;;;;23.96;58.03;101073.38;7383330;19;20368;-66
2022/08/13 02:17:41;;;;;;;6.22;1.50;;;;;;;23.95;57.85;101069.06;7383020;19;20011;-66
2022/08/13 02:20:31;;;;;;;5.80;1.83;;;;;;;23.94;57.45;101075.47;7379191;19;20033;-64
2022/08/13 02:23:06;;;;;;;4.60;1.98;;;;;;;23.84;58.01;101071.53;7376545;19;20033;-64
2022/08/13 02:25:36;;;;;;;8.90;3.08;;;;;;;23.81;57.92;101068.50;7382223;19;20037;-64
2022/08/13 02:28:04;;;;;;;7.90;2.80;;;;;;;23.76;57.93;101073.75;7384197;19;20018;-64
2022/08/13 02:30:50;;;;;;;9.20;3.03;;;;;;;23.68;58.64;101074.91;7383060;19;20380;-64
2022/08/13 02:33:21;;;;;;;5.30;2.90;;;;;;;23.63;58.63;101073.97;7380871;19;20311;-64
2022/08/13 02:35:52;;;;;;;4.50;2.58;;;;;;;23.59;58.69;101078.16;7386336;19;20472;-64
2022/08/13 02:38:20;;;;;;;7.32;2.67;;;;;;;23.56;59.14;101068.72;7386476;19;20011;-64
2022/08/13 02:43:46;;;;;;;4.35;2.30;;;;;;;23.53;59.21;101068.34;7388943;19;20010;-63
2022/08/13 02:46:25;;;;;;;5.13;1.63;;;;;;;23.49;59.70;101073.38;7390056;19;20554;-65
2022/08/13 02:48:59;;;;;;;2.97;1.73;;;;;;;23.47;59.67;101066.59;7386460;19;20589;-65
2022/08/13 02:51:28;;;;;;;6.90;1.63;;;;;;;23.40;59.93;101067.50;7389012;19;20086;-65
2022/08/13 02:54:20;;;;;;;4.35;1.52;;;;;;;23.37;60.21;101072.50;7387973;19;20080;-65
2022/08/13 02:56:51;;;;;;;4.55;1.38;;;;;;;23.37;60.59;101070.63;7391448;19;20015;-65
2022/08/13 02:59:18;;;;;;;4.15;1.60;;;;;;;23.35;60.06;101069.22;7387088;19;20851;-64
2022/08/13 03:02:05;;;;;;;4.60;2.00;;;;;;;23.32;60.95;101072.38;7388251;19;20010;-64
2022/08/13 03:04:34;;;;;;;4.97;1.67;;;;;;;23.30;60.55;101079.84;7387469;19;20022;-64
2022/08/13 03:07:03;;;;;;;4.38;1.90;;;;;;;23.29;61.12;101073.66;7389409;19;20037;-64
2022/08/13 03:09:33;;;;;;;7.22;3.10;;;;;;;23.32;62.88;101070.50;7388418;19;20007;-63
2022/08/13 03:12:15;;;;;;;4.13;2.05;;;;;;;23.30;61.62;101069.09;7389166;19;20046;-64
2022/08/13 03:14:43;;;;;;;;;;;;;;;23.29;61.62;101076.34;7388269;19;20275;-64
2022/08/13 03:17:14;;;;;;;8.40;2.10;;;;;;;23.25;61.93;101071.66;7390083;19;19919;-64
2022/08/13 03:19:51;;;;;;;8.95;1.73;;;;;;;23.21;62.57;101059.75;7382353;19;20705;-64
2022/08/13 03:22:24;;;;;;;6.57;1.95;;;;;;;23.19;62.84;101061.84;7388647;19;20018;-64
2022/08/13 03:24:53;;;;;;;5.57;2.00;;;;;;;23.13;62.81;101068.94;7386495;19;20070;-64
2022/08/13 03:27:21;;;;;;;5.82;2.30;;;;;;;23.11;63.64;101059.50;7386476;19;20019;-64
2022/08/13 03:29:53;;;;;;;5.30;2.15;;;;;;;23.09;63.45;101069.63;7388591;19;20372;-65
2022/08/13 03:32:40;;;;;;;7.00;2.50;;;;;;;23.11;63.72;101070.22;7388468;19;20359;-64
2022/08/13 03:35:11;;;;;;;5.82;2.17;;;;;;;23.07;64.05;101072.53;7385420;19;20011;-64
2022/08/13 03:37:44;;;;;;;5.75;1.98;;;;;;;23.01;63.87;101060.03;7386609;19;20126;-64
2022/08/13 03:40:13;;;;;;;4.80;2.70;;;;;;;22.98;64.25;101066.69;7387316;19;20458;-64
2022/08/13 03:42:45;;;;;;;5.10;2.37;;;;;;;22.93;64.60;101068.41;7386796;19;20029;-64
2022/08/13 03:45:21;;;;;;;8.93;2.80;;;;;;;22.89;64.93;101065.38;7384597;19;20592;-63
2022/08/13 03:47:51;;;;;;;6.65;2.53;;;;;;;22.83;65.08;101068.13;7386691;19;20033;-64
2022/08/13 03:50:20;;;;;;;6.30;2.47;;;;;;;22.75;65.51;101063.91;7383568;19;20018;-63
2022/08/13 03:52:50;;;;;;;6.05;2.67;;;;;;;22.70;65.79;101068.28;7384697;19;20019;-64
2022/08/13 03:55:19;;;;;;;6.38;2.83;;;;;;;22.65;65.84;101071.66;7385449;19;20045;-64
2022/08/13 03:57:48;;;;;;;6.03;2.08;;;;;;;22.63;66.19;101073.75;7388616;19;20328;-64
2022/08/13 04:00:32;;;;;;;6.43;2.60;;;;;;;22.62;66.39;101069.41;7384722;19;20010;-64
2022/08/13 04:03:12;;;;;;;7.10;2.50;;;;;;;22.61;66.39;101063.22;7386829;19;20181;-63
2022/08/13 04:05:41;;;;;;;6.53;2.38;;;;;;;22.63;66.25;101056.81;7383728;19;20014;-63
2022/08/13 04:08:25;;;;;;;10.60;2.58;;;;;;;22.64;66.57;101056.59;7386450;19;20037;-64
2022/08/13 04:10:55;;;;;;;13.15;2.17;;;;;;;22.65;66.14;101065.47;7386914;19;20023;-63
2022/08/13 04:13:24;;;;;;;4.70;2.13;;;;;;;22.67;66.50;101058.00;7385377;19;20025;-63
2022/08/13 04:16:25;;;;;;;9.70;2.75;;;;;;;22.67;66.05;101058.00;7386747;19;20010;-64
2022/08/13 04:19:01;;;;;;;10.43;2.80;;;;;;;22.64;66.08;101061.97;7382603;19;20018;-65
2022/08/13 04:21:41;;;;;;;8.18;2.30;;;;;;;22.57;67.13;101054.00;7387773;19;20432;-63
2022/08/13 04:24:11;;;;;;;7.50;2.47;;;;;;;22.54;67.04;101054.47;7386275;19;20053;-65
2022/08/13 04:26:43;;;;;;;5.55;2.33;;;;;;;22.54;66.87;101054.47;7388233;19;20015;-64
2022/08/13 04:29:13;;;;;;;4.53;2.28;;;;;;;22.52;66.96;101050.34;7384751;19;20924;-64
2022/08/13 04:31:46;;;;;;;5.18;2.47;;;;;;;22.48;67.29;101044.63;7385431;19;20020;-64
2022/08/13 04:34:19;;;;;;;9.77;2.60;;;;;;;22.47;66.86;101047.53;7382364;19;20033;-65
2022/08/13 04:37:10;;;;;;;5.97;2.58;;;;;;;22.41;67.33;101045.72;7384322;19;20374;-64
2022/08/13 04:39:49;;;;;;;8.57;3.15;;;;;;;22.41;67.39;101040.38;7384499;19;20375;-65
2022/08/13 04:42:54;;;;;;;7.20;2.47;;;;;;;22.43;67.90;101041.81;7386560;19;20482;-64
2022/08/13 04:45:23;;;;;;;6.07;2.38;;;;;;;22.45;67.09;101047.75;7383224;19;20018;-64
2022/08/13 04:47:58;;;;;;;6.82;2.42;;;;;;;22.46;67.41;101046.69;7386103;19;20037;-64
2022/08/13 04:50:31;;;;;;;3.40;2.20;;;;;;;22.46;67.15;101051.25;7381645;19;20015;-64
2022/08/13 04:52:59;;;;;;;9.25;2.67;;;;;;;22.44;67.13;101053.34;7386408;19;20022;-64
2022/08/13 04:55:33;;;;;;;6.55;2.03;;;;;;;22.42;67.42;101050.88;7384798;19;20010;-65
2022/08/13 04:58:23;;;;;;;7.65;2.50;;;;;;;22.38;67.56;101056.94;7382958;19;20011;-64
2022/08/13 05:00:51;;;;;;;5.93;2.45;;;;;;;22.34;67.46;101056.56;7383949;19;20019;-65
2022/08/13 05:03:22;;;;;;;7.70;2.50;;;;;;;22.36;67.34;101056.31;7384929;19;20018;-65
2022/08/13 05:05:59;;;;;;;11.35;2.60;;;;;;;22.28;67.65;101049.41;7381871;19;20026;-65
2022/08/13 05:08:27;;;;;;;5.97;2.42;;;;;;;22.25;67.97;101046.38;7383769;19;20015;-64
2022/08/13 05:10:54;;;;;;;6.80;2.15;;;;;;;22.24;67.93;101058.94;7383708;19;20010;-64
2022/08/13 05:13:27;;;;;;;5.13;2.42;;;;;;;22.25;68.05;101051.72;7384329;19;20032;-63
2022/08/13 05:16:11;;;;;;;7.82;2.33;;;;;;;22.24;68.36;101042.88;7383352;19;20006;-65
2022/08/13 05:18:42;;;;;;;6.10;2.72;;;;;;;22.23;68.08;101056.47;7382604;19;20412;-63
2022/08/13 05:21:11;;;;;;;5.28;2.70;;;;;;;22.22;67.94;101052.97;7383488;19;20037;-63
2022/08/13 05:23:46;;;;;;;4.55;2.42;;;;;;;22.25;68.04;101044.47;7384821;19;20023;-65
2022/08/13 05:26:33;;;;;;;7.18;2.40;;;;;;;22.19;68.10;101048.06;7386051;19;20030;-64
2022/08/13 05:29:20;;;;;;;5.90;2.20;;;;;;;22.15;68.45;101049.53;7382658;19;20017;-65
2022/08/13 05:31:46;;;;;;;4.85;2.30;;;;;;;22.11;68.52;101048.34;7386602;19;20002;-65
2022/08/13 05:34:25;;;;;;;5.78;2.10;;;;;;;22.09;68.61;101053.97;7379664;19;20023;-64
2022/08/13 05:36:54;;;;;;;7.68;2.70;;;;;;;22.08;69.11;101051.50;7384273;19;20011;-64
2022/08/13 05:39:42;;;;;;;5.60;2.38;;;;;;;22.12;68.66;101047.31;7382844;19;20011;-64
2022/08/13 05:42:18;;;;;;;5.80;2.67;;;;;;;22.13;68.26;101046.28;7384506;19;20021;-64
2022/08/13 05:44:55;;;;;;;10.18;2.50;;;;;;;22.08;68.64;101046.97;7385007;19;20292;-64
2022/08/13 05:47:23;;;;;;;5.60;2.25;;;;;;;22.08;69.33;101041.59;7384742;19;20038;-65
2022/08/13 05:49:51;;;;;;;5.95;2.60;;;;;;;22.05;68.82;101044.69;7380207;19;20489;-64
2022/08/13 05:52:25;;;;;;;15.00;2.97;;;;;;;22.04;69.07;101040.41;7384786;19;20546;-64
2022/08/13 05:55:09;;;;;;;8.68;2.40;;;;;;;22.07;69.28;101048.00;7381867;19;20018;-63
2022/08/13 05:57:57;;;;;;;6.95;2.40;;;;;;;22.08;69.17;101049.63;7382511;19;20022;-64
2022/08/13 06:03:24;;;;;;;8.40;2.25;;;;;;;22.10;68.82;101046.72;7382610;19;20015;-64
2022/08/13 06:06:18;;;;;;;6.97;2.42;;;;;;;22.08;69.12;101046.97;7382256;19;20019;-65
2022/08/13 06:08:58;;;;;;;6.30;2.85;;;;;;;22.06;68.95;101040.16;7385439;19;20566;-65
2022/08/13 06:11:27;;;;;;;8.77;3.15;;;;;;;22.04;69.05;101036.91;7390142;19;20037;-64
2022/08/13 06:14:20;;;;;;;5.65;2.55;;;;;;;22.03;69.44;101038.75;7388616;19;20022;-64
2022/08/13 06:16:51;;;;;;;4.68;2.47;;;;;;;22.06;69.57;101037.47;7391776;19;20570;-65
2022/08/13 06:19:25;;;;;;;6.32;2.63;;;;;;;22.05;69.61;101043.88;7384558;19;20014;-64
2022/08/13 06:22:02;;;;;;;5.40;2.50;;;;;;;22.07;69.58;101034.59;7391715;19;20090;-64
2022/08/13 06:24:32;;;;;;;4.55;2.15;;;;;;;22.09;69.61;101039.75;7389315;19;20105;-64
2022/08/13 06:27:04;;;;;;;5.88;2.83;;;;;;;22.10;69.49;101038.66;7388948;19;20014;-64
2022/08/13 06:29:43;;;;;;;6.88;2.55;;;;;;;22.13;69.63;101047.09;7389631;19;20477;-65
2022/08/13 06:32:19;;;;;;;6.43;3.10;;;;;;;22.17;69.24;101037.56;7389136;19;20021;-65
2022/08/13 06:35:01;;;;;;;8.18;2.40;;;;;;;22.23;69.29;101043.06;7383130;19;20054;-64
2022/08/13 06:37:28;;;;;;;7.85;3.30;;;;;;;22.23;69.14;101037.72;7388259;19;20049;-65
2022/08/13 06:40:08;;;;;;;4.85;1.95;;;;;;;22.26;69.15;101039.94;7381353;19;20091;-65
2022/08/13 06:42:56;;;;;;;6.13;2.85;;;;;;;22.30;68.55;101033.09;7389989;19;20021;-64
2022/08/13 06:45:23;;;;;;;8.25;3.15;;;;;;;22.32;68.48;101029.13;7388774;19;20388;-65
2022/08/13 06:47:52;;;;;;;6.38;2.50;;;;;;;22.33;68.71;101032.66;7390270;19;20102;-65
2022/08/13 06:50:27;;;;;;;10.18;2.78;;;;;;;22.33;68.65;101030.78;7383611;19;20015;-65
2022/08/13 06:52:56;;;;;;;8.30;3.28;;;;;;;22.36;69.00;101027.63;7389763;19;20014;-64
2022/08/13 06:55:44;;;;;;;9.77;2.72;;;;;;;22.38;68.63;101028.25;7388679;19;20061;-64
2022/08/13 06:58:32;;;;;;;9.40;3.10;;;;;;;22.40;68.71;101020.78;7388450;19;20018;-65
2022/08/13 07:00:59;;;;;;;15.18;2.85;;;;;;;22.41;68.26;101017.06;7386098;19;20020;-65
2022/08/13 07:03:34;;;;;;;6.22;2.50;;;;;;;22.43;68.83;101014.97;7389009;19;20010;-64
2022/08/13 07:06:26;;;;;;;3.88;2.60;;;;;;;22.50;68.71;101020.25;7387350;19;20086;-64
2022/08/13 07:08:56;;;;;;;6.47;2.38;;;;;;;22.56;68.31;101019.34;7388829;19;20007;-64
2022/08/13 07:11:28;;;;;;;7.65;2.70;;;;;;;22.63;68.71;101021.94;7388560;19;20348;-64
2022/08/13 07:14:06;;;;;;;7.10;2.75;;;;;;;22.71;68.02;101022.47;7385289;19;20394;-64
2022/08/13 07:16:40;;;;;;;6.60;2.42;;;;;;;22.74;67.45;101024.72;7389705;19;20492;-64
2022/08/13 07:19:11;;;;;;;7.25;2.70;;;;;;;22.75;67.33;101020.97;7383633;19;20015;-65
2022/08/13 07:21:42;;;;;;;6.35;2.78;;;;;;;22.82;67.14;101012.81;7386867;19;20014;-64
2022/08/13 07:24:11;;;;;;;10.65;2.63;;;;;;;22.83;66.75;101015.28;7386393;19;20585;-64
2022/08/13 07:27:07;;;;;;;15.00;2.50;;;;;;;22.82;67.15;101008.28;7384694;19;20015;-63
2022/08/13 07:29:38;;;;;;;6.57;3.38;;;;;;;22.85;67.62;101020.44;7384904;19;20413;-65
2022/08/13 07:32:18;;;;;;;8.23;3.50;;;;;;;22.89;67.05;101032.34;7386631;19;20017;-65
2022/08/13 07:34:46;;;;;;;5.38;2.40;;;;;;;22.98;66.37;101022.91;7384516;19;20017;-65
2022/08/13 07:37:21;;;;;;;5.72;2.30;;;;;;;23.04;66.40;101032.72;7386738;19;20332;-65
2022/08/13 07:39:52;;;;;;;5.35;2.33;;;;;;;23.08;66.54;101031.22;7386601;19;20353;-65
2022/08/13 07:42:23;;;;;;;6.30;2.10;;;;;;;23.13;66.36;101022.47;7387749;19;20090;-66
2022/08/13 07:45:00;;;;;;;5.32;2.17;;;;;;;23.25;65.63;101029.50;7387408;19;20082;-66
2022/08/13 07:47:50;;;;;;;4.93;2.05;;;;;;;23.29;65.59;101021.81;7386297;19;20006;-66
2022/08/13 07:50:38;;;;;;;11.00;3.35;;;;;;;23.36;65.21;101030.59;7381382;19;20017;-66
2022/08/13 07:53:10;;;;;;;7.22;2.53;;;;;;;23.39;64.88;101022.03;7387209;19;20024;-66
2022/08/13 07:55:43;;;;;;;6.88;2.72;;;;;;;23.49;64.34;101013.44;7386648;19;20027;-66
2022/08/13 07:58:33;;;;;;;4.80;2.35;;;;;;;23.56;64.32;101019.53;7385104;19;20017;-65
2022/08/13 08:01:02;;;;;;;7.65;2.75;;;;;;;23.61;63.84;101022.34;7383477;19;20006;-64
2022/08/13 08:03:33;;;;;;;5.47;2.40;;;;;;;23.63;63.86;101025.59;7383022;19;20018;-66
2022/08/13 08:06:18;;;;;;;7.30;2.42;;;;;;;23.64;64.29;101025.34;7385626;19;20015;-66
2022/08/13 08:08:55;;;;;;;5.22;2.55;;;;;;;23.67;64.23;101021.41;7385555;19;20460;-65
2022/08/13 08:14:18;;;;;;;7.95;2.15;;;;;;;23.79;63.23;101028.38;7385631;19;20272;-67
2022/08/13 08:17:01;;;;;;;6.35;2.10;;;;;;;23.83;63.56;101021.47;7385417;19;20337;-65
2022/08/13 08:19:47;;;;;;;8.05;2.60;;;;;;;23.89;62.99;101019.72;7379172;19;20018;-65
2022/08/13 08:22:35;;;;;;;5.70;2.70;;;;;;;23.96;62.51;101025.00;7385067;19;20018;-66
2022/08/13 08:25:03;;;;;;;4.85;1.88;;;;;;;23.98;62.12;101023.69;7384429;19;20020;-66
2022/08/13 08:27:47;;;;;;;6.88;1.75;;;;;;;24.03;63.27;101029.19;7383211;19;20014;-65
2022/08/13 08:30:34;;;;;;;7.88;2.20;;;;;;;24.09;62.41;101030.94;7384086;19;20021;-65
2022/08/13 08:33:04;;;;;;;6.18;2.22;;;;;;;24.15;61.69;101023.78;7383558;19;20018;-65
2022/08/13 08:35:38;;;;;;;4.13;2.05;;;;;;;24.21;61.25;101028.25;7379698;19;20019;-67
2022/08/13 08:44:16;;;;;;;6.03;1.92;;;;;;;24.44;60.39;101022.78;7382679;19;20025;-66
2022/08/13 08:46:46;;;;;;;4.65;1.48;;;;;;;24.50;60.37;101026.41;7386140;19;20025;-66
2022/08/13 08:49:15;;;;;;;4.47;2.28;;;;;;;24.59;59.66;101025.78;7380918;19;20029;-66
2022/08/13 08:52:02;;;;;;;7.72;2.20;;;;;;;24.63;59.08;101021.56;7384142;19;20010;-66
2022/08/13 08:54:30;;;;;;;5.68;2.20;;;;;;;24.70;59.13;101016.84;7384348;19;20015;-65
2022/08/13 08:56:59;;;;;;;6.60;2.10;;;;;;;24.76;58.76;101027.69;7383785;19;20018;-66
2022/08/13 08:59:28;;;;;;;7.00;1.75;;;;;;;24.81;58.92;101027.78;7383313;19;20031;-66
2022/08/13 09:01:57;;;;;;;8.05;2.30;;;;;;;24.84;57.76;101025.41;7384784;19;20296;-66
2022/08/13 09:04:29;;;;;;;6.25;1.80;;;;;;;24.87;58.17;101027.69;7381690;19;20014;-66
2022/08/13 09:07:18;;;;;;;3.28;1.50;;;;;;;24.90;58.15;101027.19;7384230;19;20014;-66
2022/08/13 09:09:57;;;;;;;2.70;1.50;;;;;;;25.00;56.60;101023.84;7381607;19;20038;-66
2022/08/13 09:12:28;;;;;;;6.47;1.50;;;;;;;25.14;56.22;101022.50;7383174;19;20424;-65
2022/08/13 09:14:59;;;;;;;4.88;1.88;;;;;;;25.21;55.94;101022.31;7383066;19;20542;-66
2022/08/13 09:17:27;;;;;;;4.40;1.65;;;;;;;25.28;56.52;101017.59;7384166;19;20011;-65
2022/08/13 09:20:14;;;;;;;6.07;1.30;;;;;;;25.32;56.32;101019.56;7377580;19;20381;-65
2022/08/13 09:22:45;;;;;;;5.32;1.17;;;;;;;25.40;56.28;101021.81;7383264;19;20014;-66
2022/08/13 09:25:23;;;;;;;6.00;1.60;;;;;;;25.52;55.75;101017.16;7382917;19;20373;-65
2022/08/13 09:27:51;;;;;;;4.25;1.27;;;;;;;25.62;54.74;101021.09;7383048;19;20415;-65
2022/08/13 09:30:30;;;;;;;4.75;1.42;;;;;;;25.75;53.88;101024.25;7382750;19;20353;-65
2022/08/13 09:33:00;;;;;;;5.40;1.40;;;;;;;25.87;53.87;101026.84;7381968;19;20015;-65
2022/08/13 09:35:31;;;;;;;4.20;1.30;;;;;;;25.98;54.01;101025.94;7379634;19;20288;-66
2022/08/13 09:38:04;;;;;;;;;;;;;;;26.09;53.59;101019.63;7381477;19;20027;-65
2022/08/13 09:40:38;;;;;;;5.20;1.08;;;;;;;26.18;54.12;101022.69;7380974;19;20332;-66
2022/08/13 09:43:31;;;;;;;5.43;1.48;;;;;;;26.27;52.23;101026.59;7383260;19;20057;-64
2022/08/13 09:46:19;;;;;;;3.00;1.38;;;;;;;26.40;52.02;101028.94;7391796;19;20029;-65
2022/08/13 09:48:50;;;;;;;9.35;1.50;;;;;;;26.50;52.21;101022.81;7387491;19;20037;-66
2022/08/13 09:51:20;;;;;;;5.80;1.33;;;;;;;26.59;51.50;101024.81;7389520;19;20018;-67
2022/08/13 09:54:09;;;;;;;3.38;1.25;;;;;;;26.69;51.80;101021.41;7390059;19;20022;-67
2022/08/13 09:56:39;;;;;;;4.35;1.10;;;;;;;26.79;51.64;101013.41;7391693;19;20391;-67
2022/08/13 09:59:09;;;;;;;2.88;1.05;;;;;;;26.89;51.07;101018.94;7390039;19;20027;-67
2022/08/13 10:01:44;;;;;;;6.20;1.10;;;;;;;26.99;50.55;101004.69;7387779;19;20029;-67
2022/08/13 10:04:24;;;;;;;4.57;1.10;;;;;;;27.09;50.01;101002.91;7385738;19;20018;-68
2022/08/13 10:06:51;;;;;;;9.63;1.55;;;;;;;27.20;50.11;100998.41;7390369;19;20289;-66
2022/08/13 10:09:26;;;;;;;7.05;1.30;;;;;;;27.33;49.40;100997.16;7388613;19;20010;-66
2022/08/13 10:12:01;;;;;;;1.95;1.02;;;;;;;27.44;48.72;100996.13;7391063;19;20010;-67
2022/08/13 10:14:46;;;;;;;5.13;1.30;;;;;;;27.51;48.40;100989.47;7390481;19;20015;-67
2022/08/13 10:17:27;;;;;;;3.13;0.93;;;;;;;27.59;47.04;100994.38;7391155;19;20190;-66
2022/08/13 10:20:24;;;;;;;5.32;1.10;;;;;;;27.68;47.18;100983.06;7385220;19;20018;-67
2022/08/13 10:22:53;;;;;;;5.97;1.30;;;;;;;27.73;47.18;100989.31;7388071;19;20015;-67
2022/08/13 10:25:23;;;;;;;3.70;1.00;;;;;;;27.78;46.15;100981.25;7388583;19;20376;-67
2022/08/13 10:28:21;;;;;;;4.68;0.88;;;;;;;27.90;45.18;100981.81;7389480;19;20014;-67
2022/08/13 10:30:58;;;;;;;22.55;1.52;;;;;;;27.99;45.21;100977.53;7390490;19;20067;-68
2022/08/13 10:33:45;;;;;;;5.32;1.20;;;;;;;28.10;44.53;100978.38;7388290;19;20025;-67
2022/08/13 10:36:14;;;;;;;6.82;1.00;;;;;;;28.14;44.47;100970.59;7389692;19;20014;-66
2022/08/13 10:38:41;;;;;;;3.58;1.02;;;;;;;28.16;44.49;100971.94;7383742;19;20398;-68
2022/08/13 10:41:20;;;;;;;4.78;1.00;;;;;;;28.16;43.83;100968.41;7386213;19;20017;-66
2022/08/13 10:43:48;;;;;;;4.80;1.23;;;;;;;28.24;43.20;100968.72;7385893;19;20063;-67
2022/08/13 10:46:23;;;;;;;2.72;0.90;;;;;;;28.31;42.47;100963.88;7388241;19;20300;-67
2022/08/13 10:48:55;;;;;;;15.65;1.90;;;;;;;28.33;42.47;100964.44;7384233;19;20014;-68
2022/08/13 10:51:26;;;;;;;14.60;1.95;;;;;;;28.37;42.29;100959.28;7386438;19;20021;-66
2022/08/13 10:53:58;;;;;;;3.13;1.00;;;;;;;28.40;41.66;100954.13;7386483;19;20347;-66
2022/08/13 10:56:31;;;;;;;6.97;1.17;;;;;;;28.45;41.43;100961.44;7384235;19;20018;-68
2022/08/13 10:59:03;;;;;;;3.75;0.95;;;;;;;28.47;41.68;100954.69;7384814;19;20037;-68
2022/08/13 11:01:39;;;;;;;7.90;1.00;;;;;;;28.54;41.07;100959.03;7383480;19;20079;-66
2022/08/13 11:04:09;;;;;;;7.05;1.20;;;;;;;28.59;41.05;100961.75;7381241;19;20011;-67
2022/08/13 11:06:39;;;;;;;4.40;1.00;;;;;;;28.62;40.99;100953.91;7386956;19;20026;-67
2022/08/13 11:09:07;;;;;;;5.35;1.13;;;;;;;28.66;41.04;100946.84;7385061;19;20014;-67
2022/08/13 11:11:55;;;;;;;7.78;1.17;;;;;;;28.71;40.80;100948.75;7387020;19;20010;-67
2022/08/13 11:14:29;;;;;;;3.92;0.80;;;;;;;28.77;40.12;100950.41;7385465;19;20014;-67
2022/08/13 11:17:04;;;;;;;3.00;0.85;;;;;;;28.80;39.74;100936.34;7386194;19;20058;-66
2022/08/13 11:19:51;;;;;;;5.03;1.00;;;;;;;28.84;39.96;100942.84;7379866;19;20043;-68
2022/08/13 11:22:28;;;;;;;3.65;1.15;;;;;;;28.91;39.19;100932.53;7385435;19;20014;-67
2022/08/13 11:24:57;;;;;;;5.22;0.80;;;;;;;28.93;39.04;100941.22;7384929;19;20019;-66
2022/08/13 11:27:25;;;;;;;5.07;0.98;;;;;;;28.95;38.84;100933.63;7385572;19;20018;-67
2022/08/13 11:30:14;;;;;;;5.93;0.90;;;;;;;29.00;40.13;100932.81;7386363;19;20007;-68
2022/08/13 11:33:00;;;;;;;5.03;0.73;;;;;;;29.05;39.64;100930.91;7384330;19;20394;-67
2022/08/13 11:35:33;;;;;;;6.82;1.00;;;;;;;29.09;39.36;100934.69;7379934;19;20018;-67
2022/08/13 11:38:11;;;;;;;7.13;1.00;;;;;;;29.12;40.31;100927.91;7229472;19;2982140;-67
2022/08/13 11:40:52;;;;;;;2.60;1.13;;;;;;;29.18;39.98;100924.09;7386885;19;20486;-67
2022/08/13 11:43:21;;;;;;;3.60;1.20;;;;;;;29.21;40.29;100935.19;7388326;19;20019;-68
2022/08/13 11:45:49;;;;;;;5.57;0.80;;;;;;;29.23;40.05;100924.91;7386413;19;20015;-66
2022/08/13 11:48:18;;;;;;;3.78;1.33;;;;;;;29.23;40.64;100922.19;7387400;19;20059;-68
2022/08/13 11:50:56;;;;;;;4.13;0.98;;;;;;;29.26;40.15;100921.63;7383675;19;20483;-67
2022/08/13 11:53:25;;;;;;;2.70;1.08;;;;;;;29.30;40.88;100919.22;7388024;19;20021;-66
2022/08/13 11:55:55;;;;;;;2.80;1.15;;;;;;;29.39;40.31;100914.06;7384490;19;20557;-67
2022/08/13 11:58:33;;;;;;;5.63;1.25;;;;;;;29.45;40.62;100916.47;7366692;19;20276;-67
2022/08/13 12:01:18;;;;;;;2.10;0.77;;;;;;;29.52;40.13;100919.69;7377470;19;20403;-68
2022/08/13 12:03:54;;;;;;;2.45;1.02;;;;;;;29.58;39.72;100921.31;7382203;19;20014;-65
2022/08/13 12:06:42;;;;;;;7.53;1.33;;;;;;;29.62;39.86;100911.53;7383078;19;20066;-67
2022/08/13 12:09:19;;;;;;;10.05;1.20;;;;;;;29.66;39.88;100914.53;7383435;19;20015;-67
2022/08/13 12:12:07;;;;;;;4.97;0.95;;;;;;;29.68;40.48;100912.31;7385268;19;20014;-67
2022/08/13 12:14:46;;;;;;;5.55;1.20;;;;;;;29.70;39.82;100910.16;7382638;19;20050;-67
2022/08/13 12:17:15;;;;;;;3.30;0.88;;;;;;;29.72;39.52;100913.38;7383933;19;20022;-67
2022/08/13 12:20:03;;;;;;;2.97;1.00;;;;;;;29.74;39.14;100909.31;7378697;19;20021;-68
2022/08/13 12:22:42;;;;;;;5.22;1.08;;;;;;;29.80;38.41;100910.09;7382946;19;20082;-67
2022/08/13 12:25:12;;;;;;;4.22;0.98;;;;;;;29.79;38.42;100907.66;7384195;19;20018;-67
2022/08/13 12:28:24;;;;;;;5.93;1.02;;;;;;;29.83;37.41;100906.00;7383289;19;20018;-67
2022/08/13 12:30:58;;;;;;;3.55;1.10;;;;;;;29.80;37.43;100899.25;7381587;19;20011;-67